Time;durP1;ratioP1;P1;durP2;ratioP2;P2;SDS_P1;SDS_P2;PMS_P1;PMS_P2;Temp;Humidity;BMP_temperature;BMP_pressure;BME280_temperature;BME280_humidity;BME280_pressure;Samples;Min_cycle;Max_cycle;Signal;HPM_P1;HPM_P2
2023/10/06 00:01:51;;;;;;;9.32;3.65;;;14.30;99.90;;;;;;5056992;28;20044;-79
2023/10/06 00:04:19;;;;;;;9.07;2.92;;;14.40;99.90;;;;;;5052839;28;21134;-78
2023/10/06 00:06:48;;;;;;;8.82;2.97;;;14.30;99.90;;;;;;5047954;28;20393;-78
2023/10/06 00:09:28;;;;;;;8.15;2.80;;;14.40;99.90;;;;;;5051317;28;20448;-78
2023/10/06 00:11:55;;;;;;;10.50;2.83;;;14.30;99.90;;;;;;5050752;28;20068;-78
2023/10/06 00:17:17;;;;;;;;;;;14.30;99.90;;;;;;5053918;28;20091;-76
2023/10/06 00:19:45;;;;;;;9.18;3.25;;;14.30;99.90;;;;;;5024198;28;19967;-78
2023/10/06 00:24:50;;;;;;;9.10;2.80;;;14.30;99.90;;;;;;5031258;28;20072;-80
2023/10/06 00:27:20;;;;;;;9.98;3.58;;;14.30;99.90;;;;;;5031054;28;20045;-78
2023/10/06 00:29:48;;;;;;;8.27;3.10;;;14.30;99.90;;;;;;5047967;28;20439;-77
2023/10/06 00:32:21;;;;;;;11.02;3.47;;;14.30;99.90;;;;;;5048698;28;20052;-78
2023/10/06 00:35:14;;;;;;;8.23;3.20;;;14.30;99.90;;;;;;5050978;28;20045;-79
2023/10/06 00:37:44;;;;;;;11.45;3.50;;;14.30;99.90;;;;;;5047321;28;20041;-78
2023/10/06 00:40:19;;;;;;;8.95;3.40;;;14.30;99.90;;;;;;5051562;28;20041;-78
2023/10/06 00:42:56;;;;;;;8.65;3.35;;;14.30;99.90;;;;;;5047885;28;20049;-78
2023/10/06 00:45:30;;;;;;;9.57;2.88;;;14.30;99.90;;;;;;5049147;28;20057;-77
2023/10/06 00:47:58;;;;;;;10.10;2.90;;;14.30;99.90;;;;;;5049949;28;20052;-78
2023/10/06 00:50:24;;;;;;;11.75;3.40;;;14.20;99.90;;;;;;5043475;28;20098;-78
2023/10/06 00:52:55;;;;;;;11.77;3.20;;;14.20;99.90;;;;;;5044431;28;20114;-78
2023/10/06 00:55:22;;;;;;;13.40;3.58;;;14.20;99.90;;;;;;5043667;28;20056;-78
2023/10/06 00:57:53;;;;;;;10.52;3.75;;;14.20;99.90;;;;;;5051724;28;20045;-79
2023/10/06 01:00:24;;;;;;;9.52;3.63;;;14.20;99.90;;;;;;5050136;28;20056;-78
2023/10/06 01:02:51;;;;;;;11.02;3.45;;;14.10;99.90;;;;;;5032887;28;20036;-78
2023/10/06 01:05:21;;;;;;;13.32;4.18;;;14.10;99.90;;;;;;5030964;28;20103;-77
2023/10/06 01:07:49;;;;;;;9.25;3.38;;;14.20;99.90;;;;;;5049165;28;20045;-78
2023/10/06 01:10:27;;;;;;;13.25;4.88;;;14.20;99.90;;;;;;5046396;28;20077;-77
2023/10/06 01:12:56;;;;;;;11.73;3.80;;;14.20;99.90;;;;;;5050555;28;20072;-78
2023/10/06 01:15:28;;;;;;;9.05;3.78;;;14.20;99.90;;;;;;5030048;28;20088;-79
2023/10/06 01:17:58;;;;;;;10.27;3.70;;;14.20;99.90;;;;;;5029014;28;20076;-78
2023/10/06 01:20:41;;;;;;;13.23;4.57;;;14.10;99.90;;;;;;5044331;28;20485;-78
2023/10/06 01:23:21;;;;;;;10.23;4.03;;;14.10;99.90;;;;;;5041268;28;20087;-77
2023/10/06 01:25:50;;;;;;;11.13;4.03;;;14.10;99.90;;;;;;5045743;28;20034;-77
2023/10/06 01:28:23;;;;;;;11.80;3.80;;;14.10;99.90;;;;;;5042433;28;20111;-77
2023/10/06 01:30:50;;;;;;;10.38;4.45;;;14.10;99.90;;;;;;5045764;28;20052;-77
2023/10/06 01:33:17;;;;;;;9.65;4.00;;;14.10;99.90;;;;;;5036128;28;20138;-78
2023/10/06 01:35:47;;;;;;;12.10;4.40;;;14.10;99.90;;;;;;5047367;28;20505;-77
2023/10/06 01:38:22;;;;;;;15.43;4.85;;;14.20;99.90;;;;;;5051165;28;20053;-79
2023/10/06 01:40:53;;;;;;;12.05;5.10;;;14.20;99.90;;;;;;5051199;28;20040;-78
2023/10/06 01:43:22;;;;;;;11.40;5.63;;;14.20;99.90;;;;;;5053073;28;20107;-79
2023/10/06 01:45:53;;;;;;;13.18;5.10;;;14.20;99.90;;;;;;5048946;28;20084;-78
2023/10/06 01:48:23;;;;;;;12.35;5.60;;;14.20;99.90;;;;;;5033275;28;20045;-79
2023/10/06 01:50:49;;;;;;;16.20;5.57;;;14.20;99.90;;;;;;5048162;28;20047;-78
2023/10/06 01:53:19;;;;;;;9.38;5.13;;;14.20;99.90;;;;;;5048470;28;20037;-79
2023/10/06 01:55:50;;;;;;;13.80;6.82;;;14.20;99.90;;;;;;5034966;28;20041;-78
2023/10/06 01:58:20;;;;;;;14.63;6.78;;;14.20;99.90;;;;;;5054376;28;20055;-78
2023/10/06 02:00:48;;;;;;;14.77;6.32;;;14.20;99.90;;;;;;5052263;28;20435;-79
2023/10/06 02:03:21;;;;;;;12.18;5.22;;;14.30;99.90;;;;;;5051771;28;20103;-79
2023/10/06 02:05:47;;;;;;;11.90;5.72;;;14.30;99.90;;;;;;5021022;28;20501;-79
2023/10/06 02:08:23;;;;;;;16.00;7.00;;;14.30;99.90;;;;;;5048555;28;20037;-79
2023/10/06 02:10:50;;;;;;;14.63;5.90;;;14.30;99.90;;;;;;5049088;28;20071;-78
2023/10/06 02:13:21;;;;;;;12.93;6.65;;;14.20;99.90;;;;;;5044699;28;20052;-79
2023/10/06 02:15:58;;;;;;;10.32;5.45;;;14.30;99.90;;;;;;5041961;28;20106;-78
2023/10/06 02:18:35;;;;;;;17.65;7.25;;;14.40;99.90;;;;;;5037009;28;20131;-78
2023/10/06 02:21:11;;;;;;;16.40;6.28;;;14.40;99.90;;;;;;5046320;28;20052;-79
2023/10/06 02:23:37;;;;;;;12.65;5.90;;;14.30;99.90;;;;;;5046645;28;20543;-79
2023/10/06 02:26:12;;;;;;;13.05;6.03;;;14.30;99.90;;;;;;5028954;28;20417;-79
2023/10/06 02:28:48;;;;;;;11.68;5.50;;;14.40;99.90;;;;;;5022452;28;20139;-78
2023/10/06 02:31:23;;;;;;;12.88;5.65;;;14.40;99.90;;;;;;5026682;28;20292;-78
2023/10/06 02:33:51;;;;;;;11.30;5.47;;;14.40;99.90;;;;;;5048328;28;20432;-79
2023/10/06 02:36:24;;;;;;;13.23;5.28;;;14.40;99.90;;;;;;5047521;28;20071;-78
2023/10/06 02:38:51;;;;;;;9.63;4.57;;;14.40;99.90;;;;;;5040302;28;20049;-76
2023/10/06 02:41:23;;;;;;;16.65;6.00;;;14.40;99.90;;;;;;5028064;28;20476;-75
2023/10/06 02:43:50;;;;;;;15.38;5.93;;;14.40;99.90;;;;;;5030773;28;20118;-77
2023/10/06 02:46:20;;;;;;;15.23;5.80;;;14.40;99.90;;;;;;5042896;28;20053;-76
2023/10/06 02:48:51;;;;;;;13.38;5.40;;;14.40;99.90;;;;;;5024072;28;20499;-78
2023/10/06 02:51:32;;;;;;;15.82;5.25;;;14.40;99.90;;;;;;5047651;28;20041;-76
2023/10/06 02:54:27;;;;;;;13.10;5.47;;;14.40;99.90;;;;;;5041918;28;20057;-78
2023/10/06 02:56:58;;;;;;;14.38;5.60;;;14.40;99.90;;;;;;5045793;28;20053;-77
2023/10/06 02:59:25;;;;;;;13.07;5.85;;;14.40;99.90;;;;;;5047838;28;20052;-76
2023/10/06 03:01:57;;;;;;;15.57;6.22;;;14.40;99.90;;;;;;5047806;28;20051;-77
2023/10/06 03:04:27;;;;;;;15.98;6.47;;;14.30;99.90;;;;;;5043728;28;20049;-76
2023/10/06 03:07:01;;;;;;;17.45;6.05;;;14.30;99.90;;;;;;5046595;28;20087;-77
2023/10/06 03:09:44;;;;;;;17.60;6.38;;;14.30;99.90;;;;;;5047528;28;20118;-76
2023/10/06 03:14:42;;;;;;;17.40;6.93;;;14.20;99.90;;;;;;5043612;28;20564;-77
2023/10/06 03:17:09;;;;;;;11.88;6.35;;;14.20;99.90;;;;;;5044894;28;20041;-75
2023/10/06 03:19:40;;;;;;;17.42;6.80;;;14.20;99.90;;;;;;5046419;28;20052;-76
2023/10/06 03:22:09;;;;;;;15.18;6.35;;;14.20;99.90;;;;;;5006777;28;20126;-75
2023/10/06 03:24:43;;;;;;;14.70;6.40;;;14.10;99.90;;;;;;5044129;28;20048;-76
2023/10/06 03:27:14;;;;;;;15.23;7.15;;;14.10;99.90;;;;;;5044490;28;20039;-76
2023/10/06 03:29:55;;;;;;;16.23;6.57;;;14.10;99.90;;;;;;5019224;28;20986;-76
2023/10/06 03:32:32;;;;;;;15.00;6.55;;;14.20;99.90;;;;;;5049355;28;20052;-76
2023/10/06 03:37:52;;;;;;;17.88;6.22;;;14.10;99.90;;;;;;5047554;28;20049;-76
2023/10/06 03:40:23;;;;;;;15.23;6.43;;;14.20;99.90;;;;;;5042347;28;20519;-75
2023/10/06 03:42:52;;;;;;;20.30;7.25;;;14.20;99.90;;;;;;5046537;28;20385;-76
2023/10/06 03:45:26;;;;;;;18.27;7.50;;;14.10;99.90;;;;;;5050512;28;20037;-76
2023/10/06 03:48:11;;;;;;;18.40;6.43;;;14.20;99.90;;;;;;5019052;28;20050;-77
2023/10/06 03:50:44;;;;;;;14.68;6.60;;;14.10;99.90;;;;;;5032788;28;20053;-76
2023/10/06 03:53:12;;;;;;;16.27;6.60;;;14.20;99.90;;;;;;5040370;28;20051;-76
2023/10/06 03:55:44;;;;;;;16.95;8.70;;;14.10;99.90;;;;;;5020082;28;20076;-75
2023/10/06 03:58:12;;;;;;;15.70;7.30;;;14.10;99.90;;;;;;5049326;28;20041;-76
2023/10/06 04:00:38;;;;;;;13.90;7.10;;;14.10;99.90;;;;;;5050375;28;20088;-76
2023/10/06 04:03:09;;;;;;;12.50;6.90;;;14.10;99.90;;;;;;5049465;28;20049;-75
2023/10/06 04:05:39;;;;;;;17.83;7.95;;;14.10;99.90;;;;;;5048921;28;20044;-77
2023/10/06 04:08:11;;;;;;;22.25;8.45;;;14.20;99.90;;;;;;5048534;28;20472;-76
2023/10/06 04:10:40;;;;;;;19.10;7.85;;;14.10;99.90;;;;;;5031804;28;20120;-78
2023/10/06 04:13:10;;;;;;;18.30;7.35;;;14.10;99.90;;;;;;5039327;28;20156;-78
2023/10/06 04:15:38;;;;;;;16.58;8.15;;;14.10;99.90;;;;;;5035501;28;20045;-78
2023/10/06 04:18:11;;;;;;;17.77;8.10;;;14.10;99.90;;;;;;5049689;28;20091;-79
2023/10/06 04:20:41;;;;;;;16.58;7.80;;;14.10;99.90;;;;;;5026481;28;20088;-75
2023/10/06 04:23:11;;;;;;;15.65;7.53;;;14.10;99.90;;;;;;5040339;28;20049;-76
2023/10/06 04:25:41;;;;;;;17.40;8.18;;;14.00;99.90;;;;;;5047874;28;20067;-78
2023/10/06 04:28:13;;;;;;;20.20;8.00;;;14.10;99.90;;;;;;5028862;28;20056;-78
2023/10/06 04:30:49;;;;;;;20.17;7.47;;;14.00;99.90;;;;;;5047093;28;20089;-78
2023/10/06 04:33:18;;;;;;;15.25;7.90;;;14.10;99.90;;;;;;5048770;28;20049;-78
2023/10/06 04:36:07;;;;;;;18.10;7.07;;;14.10;99.90;;;;;;5044722;28;20052;-78
2023/10/06 04:38:38;;;;;;;19.02;8.00;;;14.00;99.90;;;;;;5047586;28;20432;-79
2023/10/06 04:41:08;;;;;;;15.23;7.45;;;14.10;99.90;;;;;;5048397;28;20037;-78
2023/10/06 04:43:44;;;;;;;17.85;7.43;;;14.10;99.90;;;;;;5043596;28;20049;-79
2023/10/06 04:46:13;;;;;;;17.15;7.40;;;14.00;99.90;;;;;;5040864;28;20243;-78
2023/10/06 04:48:39;;;;;;;15.80;7.75;;;14.00;99.90;;;;;;5037244;28;20123;-78
2023/10/06 04:51:12;;;;;;;15.88;7.00;;;14.10;99.90;;;;;;5042901;28;20454;-79
2023/10/06 04:53:38;;;;;;;15.25;6.82;;;14.00;99.90;;;;;;5040009;28;20050;-76
2023/10/06 04:56:08;;;;;;;13.45;6.63;;;14.00;99.90;;;;;;5025248;28;20049;-77
2023/10/06 04:58:38;;;;;;;12.07;6.38;;;14.10;99.90;;;;;;5048063;28;20041;-78
2023/10/06 05:01:04;;;;;;;13.18;6.20;;;14.10;99.90;;;;;;5027575;28;20040;-76
2023/10/06 05:03:43;;;;;;;14.07;7.65;;;14.00;99.90;;;;;;5046469;28;20396;-76
2023/10/06 05:06:13;;;;;;;15.80;7.20;;;14.00;99.90;;;;;;5047351;28;20545;-76
2023/10/06 05:08:39;;;;;;;18.40;7.38;;;14.00;99.90;;;;;;5049024;28;20644;-76
2023/10/06 05:11:06;;;;;;;18.70;7.55;;;14.10;99.90;;;;;;5031690;28;20052;-81
2023/10/06 05:13:34;;;;;;;18.30;8.27;;;14.10;99.90;;;;;;5044121;28;20065;-77
2023/10/06 05:16:01;;;;;;;18.10;6.90;;;14.00;99.90;;;;;;5046754;28;20047;-77
2023/10/06 05:18:29;;;;;;;16.27;7.30;;;14.00;99.90;;;;;;5042696;28;20540;-77
2023/10/06 05:20:55;;;;;;;17.92;6.85;;;14.00;99.90;;;;;;5034095;28;20065;-77
2023/10/06 05:23:21;;;;;;;16.13;7.00;;;14.00;99.90;;;;;;5053323;28;20048;-77
2023/10/06 05:25:46;;;;;;;14.45;6.43;;;14.00;99.90;;;;;;5050596;28;20119;-77
2023/10/06 05:28:16;;;;;;;14.85;6.78;;;14.00;99.90;;;;;;5053358;28;20080;-76
2023/10/06 05:30:45;;;;;;;17.90;7.65;;;14.00;99.90;;;;;;5045896;28;20037;-76
2023/10/06 05:33:13;;;;;;;16.73;7.18;;;14.00;99.90;;;;;;5034562;28;20052;-77
2023/10/06 05:35:40;;;;;;;15.52;7.47;;;14.10;99.90;;;;;;5027822;28;20041;-76
2023/10/06 05:38:12;;;;;;;19.20;6.88;;;14.00;99.90;;;;;;5049657;28;20481;-76
2023/10/06 05:40:41;;;;;;;16.10;6.90;;;14.00;99.90;;;;;;5046156;28;20114;-77
2023/10/06 05:43:11;;;;;;;20.70;6.18;;;14.10;99.90;;;;;;5043934;28;20353;-76
2023/10/06 05:45:44;;;;;;;15.52;6.40;;;14.00;99.90;;;;;;5048239;28;20040;-76
2023/10/06 05:48:15;;;;;;;13.10;6.32;;;14.00;99.90;;;;;;5043495;28;20048;-77
2023/10/06 05:50:45;;;;;;;13.90;6.40;;;14.00;99.90;;;;;;5050677;28;20084;-78
2023/10/06 05:53:29;;;;;;;13.88;6.13;;;14.00;99.90;;;;;;5029613;28;20091;-77
2023/10/06 05:55:55;;;;;;;18.80;6.47;;;14.10;99.90;;;;;;5046646;28;20131;-77
2023/10/06 05:58:23;;;;;;;14.27;6.72;;;14.00;99.90;;;;;;5045433;28;20124;-77
2023/10/06 06:00:50;;;;;;;14.30;5.85;;;14.10;99.90;;;;;;5050671;28;20060;-76
2023/10/06 06:03:30;;;;;;;17.27;7.05;;;14.10;99.90;;;;;;5045417;28;20124;-77
2023/10/06 06:06:08;;;;;;;17.50;7.53;;;14.10;99.90;;;;;;5033003;28;20044;-79
2023/10/06 06:08:51;;;;;;;15.55;6.50;;;14.10;99.90;;;;;;5039510;28;20053;-81
2023/10/06 06:11:20;;;;;;;12.85;6.57;;;14.10;99.90;;;;;;5052678;28;20051;-77
2023/10/06 06:13:45;;;;;;;12.52;6.60;;;14.10;99.90;;;;;;5046458;28;20150;-77
2023/10/06 06:16:11;;;;;;;14.05;6.43;;;14.20;99.90;;;;;;5042590;28;20675;-76
2023/10/06 06:18:42;;;;;;;17.38;7.22;;;14.20;99.90;;;;;;5050268;28;20052;-77
2023/10/06 06:21:08;;;;;;;13.98;6.13;;;14.20;99.90;;;;;;5019953;28;20136;-76
2023/10/06 06:23:35;;;;;;;16.80;6.07;;;14.20;99.90;;;;;;5025356;28;20506;-76
2023/10/06 06:26:01;;;;;;;18.10;6.88;;;14.20;99.90;;;;;;5051503;28;20056;-76
2023/10/06 06:28:29;;;;;;;17.30;6.82;;;14.20;99.90;;;;;;5042311;28;20041;-77
2023/10/06 06:31:04;;;;;;;15.40;6.45;;;14.30;99.90;;;;;;5042010;28;20051;-77
2023/10/06 06:33:32;;;;;;;17.48;6.30;;;14.30;99.90;;;;;;5040467;28;20044;-79
2023/10/06 06:35:58;;;;;;;17.50;6.25;;;14.30;99.90;;;;;;5027064;28;20131;-77
2023/10/06 06:38:25;;;;;;;13.80;6.15;;;14.30;99.90;;;;;;5048721;28;20080;-77
2023/10/06 06:40:50;;;;;;;15.65;6.68;;;14.30;99.90;;;;;;5035580;28;20103;-78
2023/10/06 06:43:19;;;;;;;21.33;7.28;;;14.30;99.90;;;;;;5045738;28;20041;-78
2023/10/06 06:45:45;;;;;;;11.23;5.90;;;14.30;99.90;;;;;;5038738;28;20084;-78
2023/10/06 06:48:16;;;;;;;15.68;6.45;;;14.40;99.90;;;;;;5050460;28;20041;-76
2023/10/06 06:50:43;;;;;;;14.93;6.00;;;14.40;99.90;;;;;;5047797;28;20148;-77
2023/10/06 06:53:10;;;;;;;17.67;6.47;;;14.40;99.90;;;;;;5039316;28;20040;-76
2023/10/06 06:55:36;;;;;;;13.35;5.85;;;14.40;99.90;;;;;;5049588;28;20477;-76
2023/10/06 06:58:10;;;;;;;13.43;6.25;;;14.40;99.90;;;;;;5051735;28;20045;-78
2023/10/06 07:00:39;;;;;;;12.13;6.55;;;14.50;99.90;;;;;;5036714;28;20056;-78
2023/10/06 07:03:05;;;;;;;14.68;6.32;;;14.50;99.90;;;;;;5049784;28;21352;-76
2023/10/06 07:05:34;;;;;;;12.43;6.07;;;14.50;99.90;;;;;;5047849;28;20916;-77
2023/10/06 07:08:03;;;;;;;17.02;6.38;;;14.50;99.90;;;;;;5039630;28;20099;-77
2023/10/06 07:10:29;;;;;;;12.93;6.75;;;14.60;99.90;;;;;;5050502;28;20040;-79
2023/10/06 07:12:58;;;;;;;14.63;6.65;;;14.60;99.90;;;;;;5051145;28;20123;-77
2023/10/06 07:15:29;;;;;;;11.82;6.00;;;14.60;99.90;;;;;;5047103;28;20052;-78
2023/10/06 07:17:56;;;;;;;21.73;7.72;;;14.60;99.90;;;;;;5032258;28;20064;-77
2023/10/06 07:20:27;;;;;;;19.02;7.68;;;14.60;99.90;;;;;;5035483;28;20057;-79
2023/10/06 07:23:00;;;;;;;16.33;6.72;;;14.60;99.90;;;;;;5048138;28;20045;-77
2023/10/06 07:25:26;;;;;;;17.70;8.20;;;14.70;99.90;;;;;;5049374;28;20526;-79
2023/10/06 07:27:55;;;;;;;15.77;7.85;;;14.70;99.90;;;;;;5050461;28;20167;-77
2023/10/06 07:30:22;;;;;;;17.15;7.05;;;14.70;99.90;;;;;;5033443;28;20049;-78
2023/10/06 07:32:50;;;;;;;15.65;6.55;;;14.80;99.90;;;;;;5048205;28;20491;-79
2023/10/06 07:35:18;;;;;;;16.98;7.82;;;14.70;99.90;;;;;;5041703;28;20053;-80
2023/10/06 07:37:51;;;;;;;14.63;7.53;;;14.80;99.90;;;;;;5051041;28;20243;-78
2023/10/06 07:40:21;;;;;;;17.95;7.38;;;14.80;99.90;;;;;;5050567;28;20105;-78
2023/10/06 07:42:51;;;;;;;15.95;7.65;;;14.80;99.90;;;;;;5048552;28;20460;-79
2023/10/06 07:45:18;;;;;;;19.70;7.63;;;14.80;99.90;;;;;;5049034;28;20045;-80
2023/10/06 07:47:44;;;;;;;16.88;7.90;;;14.80;99.90;;;;;;5044851;28;20600;-79
2023/10/06 07:50:15;;;;;;;14.00;8.52;;;14.80;99.90;;;;;;5045359;28;20572;-80
2023/10/06 07:52:46;;;;;;;17.77;8.48;;;14.90;99.90;;;;;;5051365;28;20045;-78
2023/10/06 07:55:13;;;;;;;15.45;8.02;;;14.90;99.90;;;;;;5048605;28;20040;-79
2023/10/06 07:57:45;;;;;;;18.05;8.68;;;15.00;99.90;;;;;;5052407;28;20041;-78
2023/10/06 08:00:27;;;;;;;25.02;8.82;;;15.00;99.90;;;;;;5051116;28;20045;-79
2023/10/06 08:03:00;;;;;;;13.68;8.00;;;15.00;99.90;;;;;;5053631;28;20052;-79
2023/10/06 08:05:28;;;;;;;18.75;8.82;;;15.10;99.90;;;;;;5047330;28;20033;-79
2023/10/06 08:07:54;;;;;;;15.32;7.43;;;15.00;99.90;;;;;;5054381;28;20045;-80
2023/10/06 08:10:19;;;;;;;17.08;9.02;;;15.00;99.90;;;;;;5052787;28;20044;-80
2023/10/06 08:12:47;;;;;;;16.50;9.13;;;15.00;99.90;;;;;;5052689;28;20072;-80
2023/10/06 08:15:17;;;;;;;15.25;8.07;;;15.00;99.90;;;;;;5053379;28;20045;-80
2023/10/06 08:17:48;;;;;;;20.40;8.45;;;15.10;99.90;;;;;;5046503;28;20389;-81
2023/10/06 08:20:15;;;;;;;16.58;7.93;;;15.10;99.90;;;;;;5053052;28;20045;-79
2023/10/06 08:22:43;;;;;;;20.67;8.95;;;15.10;99.90;;;;;;5049440;28;20049;-79
2023/10/06 08:25:09;;;;;;;17.58;8.27;;;15.10;99.90;;;;;;5050340;28;20052;-80
2023/10/06 08:27:35;;;;;;;17.02;8.48;;;15.20;99.90;;;;;;5049244;28;20377;-79
2023/10/06 08:30:02;;;;;;;15.02;7.68;;;15.20;99.90;;;;;;5053507;28;20049;-80
2023/10/06 08:32:27;;;;;;;18.70;8.45;;;15.30;99.90;;;;;;5053810;28;20045;-79
2023/10/06 08:34:53;;;;;;;18.25;8.00;;;15.30;99.90;;;;;;5051514;28;20040;-80
2023/10/06 08:37:19;;;;;;;19.80;8.18;;;15.40;99.90;;;;;;5050094;28;20068;-79
2023/10/06 08:39:46;;;;;;;20.63;7.90;;;15.50;99.90;;;;;;5051839;28;20064;-80
2023/10/06 08:42:15;;;;;;;17.88;7.97;;;15.60;99.90;;;;;;5048634;28;20047;-80
2023/10/06 08:44:44;;;;;;;17.60;8.23;;;15.60;99.90;;;;;;5054498;28;20047;-80
2023/10/06 08:47:13;;;;;;;16.02;8.32;;;15.60;99.90;;;;;;5052263;28;20053;-80
2023/10/06 08:49:43;;;;;;;21.30;7.95;;;15.70;99.90;;;;;;5048974;28;20052;-80
2023/10/06 08:52:12;;;;;;;14.07;8.25;;;15.80;99.90;;;;;;5053110;28;20048;-80
2023/10/06 08:54:42;;;;;;;20.52;8.30;;;15.80;99.90;;;;;;5036788;28;20087;-79
2023/10/06 08:57:11;;;;;;;18.02;7.43;;;16.00;99.90;;;;;;5053495;28;20416;-80
2023/10/06 08:59:37;;;;;;;16.05;7.10;;;16.00;99.90;;;;;;5050552;28;20044;-79
2023/10/06 09:02:03;;;;;;;18.80;8.07;;;16.10;99.90;;;;;;5052456;28;20049;-80
2023/10/06 09:04:35;;;;;;;15.90;7.78;;;16.10;99.90;;;;;;5052207;28;20068;-80
2023/10/06 09:07:12;;;;;;;10.95;6.72;;;16.20;99.90;;;;;;5053901;28;20049;-80
2023/10/06 09:09:40;;;;;;;16.73;7.03;;;16.20;99.90;;;;;;5046367;28;20500;-80
2023/10/06 09:12:07;;;;;;;16.08;7.18;;;16.20;99.90;;;;;;5052386;28;20127;-79
2023/10/06 09:14:33;;;;;;;14.63;7.88;;;16.30;99.90;;;;;;5048166;28;20049;-80
2023/10/06 09:17:01;;;;;;;14.02;7.55;;;16.30;99.90;;;;;;5053318;28;20384;-80
2023/10/06 09:19:48;;;;;;;17.15;7.45;;;16.40;99.90;;;;;;5044162;28;20117;-79
2023/10/06 09:22:14;;;;;;;13.85;7.03;;;16.50;99.90;;;;;;5033618;28;20132;-81
2023/10/06 09:24:39;;;;;;;16.98;6.20;;;16.50;99.90;;;;;;5046574;28;20460;-81
2023/10/06 09:27:21;;;;;;;11.07;5.93;;;16.60;99.90;;;;;;5052845;28;20076;-82
2023/10/06 09:29:47;;;;;;;13.52;6.93;;;16.50;99.90;;;;;;5049505;28;20049;-80
2023/10/06 09:32:21;;;;;;;15.40;7.43;;;16.50;99.90;;;;;;5047043;28;20041;-83
2023/10/06 09:34:46;;;;;;;13.20;7.00;;;16.50;99.90;;;;;;5038979;28;20045;-81
2023/10/06 09:37:22;;;;;;;14.57;6.22;;;16.60;99.90;;;;;;5046044;28;20047;-82
2023/10/06 09:40:15;;;;;;;13.43;6.30;;;16.60;99.90;;;;;;5040056;28;20090;-79
2023/10/06 09:42:46;;;;;;;14.77;6.00;;;16.60;99.90;;;;;;5046762;28;20068;-80
2023/10/06 09:45:18;;;;;;;14.10;6.00;;;16.60;99.90;;;;;;5053227;28;20045;-78
2023/10/06 09:47:50;;;;;;;15.82;6.93;;;16.60;99.90;;;;;;5048175;28;20204;-79
2023/10/06 09:50:20;;;;;;;17.73;6.55;;;16.60;99.90;;;;;;5049694;28;20083;-78
2023/10/06 09:52:48;;;;;;;11.77;6.03;;;16.70;99.90;;;;;;5050672;28;20072;-79
2023/10/06 09:55:17;;;;;;;12.35;6.47;;;16.70;99.90;;;;;;5039702;28;20120;-78
2023/10/06 09:57:47;;;;;;;15.95;6.28;;;16.70;99.90;;;;;;5048512;28;20519;-79
2023/10/06 10:00:17;;;;;;;12.95;5.53;;;16.80;99.90;;;;;;5047114;28;20130;-79
2023/10/06 10:02:45;;;;;;;14.05;5.38;;;16.90;99.90;;;;;;5050693;28;20041;-78
2023/10/06 10:05:18;;;;;;;10.50;5.07;;;17.00;99.90;;;;;;5041329;28;20519;-79
2023/10/06 10:07:46;;;;;;;13.52;5.40;;;17.10;99.90;;;;;;5043490;28;20045;-76
2023/10/06 10:10:15;;;;;;;12.88;5.30;;;17.30;99.90;;;;;;5048627;28;20098;-75
2023/10/06 10:13:19;;;;;;;14.55;5.35;;;17.30;99.90;;;;;;5038057;28;20045;-76
2023/10/06 10:16:04;;;;;;;11.98;4.75;;;17.40;99.90;;;;;;5047561;28;20086;-77
2023/10/06 10:18:39;;;;;;;15.80;4.55;;;17.60;99.90;;;;;;5050151;28;20749;-76
2023/10/06 10:21:06;;;;;;;;;;;17.70;99.90;;;;;;5032944;28;20144;-76
2023/10/06 10:23:32;;;;;;;13.35;4.43;;;17.80;99.90;;;;;;5038525;28;19927;-76
2023/10/06 10:26:27;;;;;;;12.52;4.75;;;18.00;99.90;;;;;;5041334;28;20041;-75
2023/10/06 10:29:17;;;;;;;13.05;4.20;;;18.10;99.90;;;;;;5047608;28;20053;-78
2023/10/06 10:31:44;;;;;;;14.32;4.13;;;18.30;99.90;;;;;;5049962;28;20052;-77
2023/10/06 10:34:20;;;;;;;15.18;4.50;;;18.30;99.90;;;;;;5051575;28;20045;-76
2023/10/06 10:36:48;;;;;;;14.63;4.45;;;18.40;99.90;;;;;;5045440;28;20606;-78
2023/10/06 10:39:17;;;;;;;12.00;4.15;;;18.40;99.90;;;;;;5049962;28;20045;-77
2023/10/06 10:41:45;;;;;;;10.80;4.78;;;18.40;99.90;;;;;;5041988;28;20041;-79
2023/10/06 10:44:12;;;;;;;14.23;4.30;;;18.50;99.90;;;;;;5050716;28;20041;-78
2023/10/06 10:46:56;;;;;;;9.82;3.88;;;18.50;99.90;;;;;;5044430;28;20048;-78
2023/10/06 10:49:22;;;;;;;10.15;4.32;;;18.50;99.90;;;;;;5033255;28;20401;-80
2023/10/06 10:51:58;;;;;;;14.10;4.40;;;18.50;99.90;;;;;;5040053;28;20069;-78
2023/10/06 10:54:27;;;;;;;10.80;4.03;;;18.60;99.90;;;;;;5045011;28;20124;-82
2023/10/06 10:57:01;;;;;;;12.60;3.90;;;18.60;99.90;;;;;;5043540;28;20049;-80
2023/10/06 11:00:24;;;;;;;10.53;3.87;;;18.70;99.90;;;;;;5050890;28;20435;-78
2023/10/06 11:02:50;;;;;;;12.43;3.53;;;18.70;99.90;;;;;;5051605;28;20053;-76
2023/10/06 11:05:20;;;;;;;11.20;3.33;;;18.80;99.90;;;;;;5051025;28;20055;-77
2023/10/06 11:07:56;;;;;;;13.15;3.75;;;18.80;99.90;;;;;;5050244;28;20496;-77
2023/10/06 11:10:23;;;;;;;16.35;3.63;;;18.90;99.90;;;;;;5047018;28;20038;-78
2023/10/06 11:12:54;;;;;;;13.57;3.78;;;19.00;99.90;;;;;;5037515;28;20043;-76
2023/10/06 11:15:27;;;;;;;16.70;4.10;;;19.00;99.90;;;;;;5043919;28;20721;-76
2023/10/06 11:17:58;;;;;;;12.68;3.55;;;18.90;99.90;;;;;;5047216;28;20892;-78
2023/10/06 11:20:27;;;;;;;11.65;3.50;;;18.90;99.90;;;;;;5037686;28;20093;-77
2023/10/06 11:22:59;;;;;;;15.18;3.83;;;18.90;99.90;;;;;;5049352;28;20558;-77
2023/10/06 11:25:28;;;;;;;13.35;3.92;;;18.90;99.90;;;;;;5052179;28;20064;-77
2023/10/06 11:28:02;;;;;;;14.07;3.95;;;18.90;99.90;;;;;;5040851;28;20040;-79
2023/10/06 11:30:28;;;;;;;10.88;3.33;;;19.00;99.90;;;;;;5045479;28;20511;-77
2023/10/06 11:32:58;;;;;;;11.15;3.25;;;19.10;99.90;;;;;;5049341;28;20053;-79
2023/10/06 11:35:24;;;;;;;16.27;3.78;;;19.10;99.90;;;;;;5042544;28;20053;-77
2023/10/06 11:37:50;;;;;;;11.88;3.38;;;19.10;99.90;;;;;;5052558;28;20552;-77
2023/10/06 11:40:16;;;;;;;13.60;3.05;;;19.10;99.90;;;;;;5057558;28;20048;-76
2023/10/06 11:42:43;;;;;;;11.68;3.13;;;19.00;99.90;;;;;;5049822;28;20049;-78
2023/10/06 11:45:27;;;;;;;15.02;3.33;;;19.00;99.90;;;;;;5040434;28;20051;-77
2023/10/06 11:47:53;;;;;;;14.93;3.47;;;19.00;99.90;;;;;;5050359;28;20120;-79
2023/10/06 11:50:32;;;;;;;8.85;3.30;;;19.10;99.90;;;;;;5053361;28;20037;-76
2023/10/06 11:52:59;;;;;;;12.77;3.67;;;19.20;99.90;;;;;;5058133;28;20053;-77
2023/10/06 11:55:35;;;;;;;12.80;3.33;;;19.30;99.90;;;;;;5056349;28;20048;-78
2023/10/06 11:58:04;;;;;;;17.73;3.92;;;19.40;99.90;;;;;;5051710;28;20045;-76
2023/10/06 12:00:45;;;;;;;10.88;3.58;;;19.50;99.90;;;;;;5056525;28;20523;-78
2023/10/06 12:03:11;;;;;;;7.03;2.92;;;19.50;99.90;;;;;;5056522;28;20056;-78
2023/10/06 12:05:41;;;;;;;12.88;3.42;;;19.50;99.90;;;;;;5055973;28;20044;-77
2023/10/06 12:08:12;;;;;;;12.75;2.92;;;19.50;99.90;;;;;;5054954;28;20047;-78
2023/10/06 12:10:51;;;;;;;10.68;3.25;;;19.50;99.90;;;;;;5043214;28;20508;-77
2023/10/06 12:13:18;;;;;;;10.20;3.03;;;19.50;99.90;;;;;;5045735;28;20046;-76
2023/10/06 12:15:44;;;;;;;7.93;2.80;;;19.60;99.90;;;;;;5050646;28;20041;-77
2023/10/06 12:18:15;;;;;;;12.35;3.22;;;19.60;99.90;;;;;;5045699;28;20063;-77
2023/10/06 12:20:41;;;;;;;19.67;3.95;;;19.50;99.90;;;;;;5055088;28;20052;-76
2023/10/06 12:23:07;;;;;;;11.50;4.03;;;19.60;99.90;;;;;;5056246;28;20662;-78
2023/10/06 12:25:33;;;;;;;16.92;3.97;;;19.60;99.90;;;;;;5058318;28;20103;-78
2023/10/06 12:28:00;;;;;;;11.90;3.38;;;19.60;99.90;;;;;;5052133;28;20041;-79
2023/10/06 12:30:28;;;;;;;14.63;3.30;;;19.70;99.90;;;;;;5056245;28;20053;-79
2023/10/06 12:32:54;;;;;;;11.27;3.15;;;19.70;99.90;;;;;;5056924;28;20044;-78
2023/10/06 12:35:28;;;;;;;11.35;3.17;;;19.80;99.90;;;;;;5056437;28;20053;-78
2023/10/06 12:37:54;;;;;;;13.05;3.13;;;19.90;99.90;;;;;;5038647;28;20053;-78
2023/10/06 12:40:20;;;;;;;10.75;2.92;;;20.00;99.90;;;;;;5038203;28;20061;-80
2023/10/06 12:42:46;;;;;;;9.13;2.75;;;20.20;99.90;;;;;;5041272;28;20041;-79
2023/10/06 12:45:17;;;;;;;10.98;3.17;;;20.30;99.90;;;;;;5054476;28;20053;-78
2023/10/06 12:47:45;;;;;;;13.15;3.00;;;20.30;99.90;;;;;;5043881;28;20401;-78
2023/10/06 12:50:17;;;;;;;11.98;3.10;;;20.20;99.90;;;;;;5041754;28;20053;-78
2023/10/06 12:52:49;;;;;;;11.98;3.15;;;20.20;99.90;;;;;;5047253;28;20049;-75
2023/10/06 12:55:20;;;;;;;12.60;3.33;;;20.10;99.90;;;;;;5052659;28;20053;-76
2023/10/06 12:57:47;;;;;;;8.90;2.88;;;20.10;99.90;;;;;;5048975;28;20060;-77
2023/10/06 13:00:12;;;;;;;14.32;3.33;;;20.10;99.90;;;;;;5047763;28;20056;-77
2023/10/06 13:02:38;;;;;;;13.95;3.78;;;20.10;99.90;;;;;;5054404;28;20045;-77
2023/10/06 13:05:13;;;;;;;14.27;3.17;;;20.10;99.90;;;;;;5054320;28;20622;-77
2023/10/06 13:07:43;;;;;;;10.93;3.28;;;20.00;99.90;;;;;;5052446;28;20052;-78